首页
METAR-TAF:

METAR-TAF

机场 :

松本機場

松本, 日本

纬度: 36-10N, 经度: 137-56E, 海拔: 668米

当前天气观测

该预报发布于1小时和35分钟前的07:00 UTC
风速9节,风向
温度 9°C
湿度 49%
气压 1018 hPa
能见度10公里或以上
少量云层高于4000英尺

METAR: RJAF 200700Z 35009KT 9999 FEW040 09/M01 Q1018

时间: 17:35 (08:35 UTC)


TAF: 丢失

超过4000个机场的气象观测和天气预报(METAR&TAF报告)。

可查询的气象台以黄色和红色小点在地图上表示。

将鼠标移到小点上方,可查看气象台名称。

然后点击查看天气观测和预报。

如需切换地图:点击带黑十字的绿色按钮放大地图;点击带横线的绿色按钮缩小地图;或者点击绿色箭头查看邻近地区的地图。


METAR-TAF: